createdAt,value
2022-09-05T00:00:16.819Z,96.8
2022-09-05T00:01:28.008Z,96.9
2022-09-05T00:02:16.770Z,96.9
2022-09-05T00:03:17.619Z,96.9
2022-09-05T00:04:25.815Z,97.0
2022-09-05T00:05:17.370Z,97.0
2022-09-05T00:06:16.783Z,97.0
2022-09-05T00:07:32.987Z,97.0
2022-09-05T00:08:16.688Z,97.1
2022-09-05T00:09:19.215Z,97.2
2022-09-05T00:10:20.675Z,97.2
2022-09-05T00:11:40.260Z,97.2
2022-09-05T00:12:16.652Z,97.2
2022-09-05T00:13:17.088Z,97.2
2022-09-05T00:14:34.494Z,97.2
2022-09-05T00:15:19.430Z,97.2
2022-09-05T00:16:17.018Z,97.3
2022-09-05T00:17:16.549Z,97.3
2022-09-05T00:19:28.453Z,97.3
2022-09-05T00:22:52.706Z,97.5
2022-09-05T00:24:17.911Z,97.5
2022-09-05T00:24:23.782Z,97.5
2022-09-05T00:24:23.920Z,97.5
2022-09-05T00:24:24.167Z,97.5
2022-09-05T00:24:41.951Z,97.6
2022-09-05T00:25:31.468Z,97.6
2022-09-05T00:26:16.548Z,97.6
2022-09-05T00:27:17.017Z,97.7
2022-09-05T00:28:27.179Z,97.5
2022-09-05T00:29:42.080Z,97.6
2022-09-05T00:30:55.307Z,97.6
2022-09-05T00:31:52.099Z,97.5
2022-09-05T00:32:17.317Z,97.5
2022-09-05T00:33:18.030Z,97.5
2022-09-05T00:34:16.497Z,97.5
2022-09-05T00:35:16.979Z,97.5
2022-09-05T00:36:17.405Z,97.5
2022-09-05T00:37:17.201Z,97.5
2022-09-05T00:38:16.670Z,97.5
2022-09-05T00:39:17.086Z,97.5
2022-09-05T00:40:19.067Z,97.5
2022-09-05T00:41:16.680Z,97.6
2022-09-05T00:42:16.645Z,97.6
2022-09-05T00:43:17.144Z,97.5
2022-09-05T00:44:16.627Z,97.6
2022-09-05T00:45:20.050Z,97.6
2022-09-05T00:46:16.678Z,97.6
2022-09-05T00:47:17.175Z,97.6
2022-09-05T00:48:16.637Z,97.7
2022-09-05T00:49:17.059Z,97.7
2022-09-05T00:50:16.485Z,97.6
2022-09-05T00:51:16.898Z,97.7
2022-09-05T00:52:17.325Z,97.7
2022-09-05T00:53:16.744Z,97.7
2022-09-05T00:54:26.471Z,97.7
2022-09-05T00:55:17.227Z,97.7
2022-09-05T00:56:16.692Z,97.7
2022-09-05T00:57:18.279Z,97.7
2022-09-05T00:58:16.752Z,97.7
2022-09-05T00:59:17.219Z,97.7
2022-09-05T01:00:18.516Z,97.7
2022-09-05T01:01:21.778Z,97.7
2022-09-05T01:02:17.273Z,97.7
2022-09-05T01:03:17.050Z,95.4
2022-09-05T01:04:16.553Z,97.8
2022-09-05T01:05:17.671Z,97.7
2022-09-05T01:06:17.115Z,97.8
2022-09-05T01:07:16.584Z,97.8
2022-09-05T01:08:17.023Z,97.8
2022-09-05T01:09:16.436Z,97.8
2022-09-05T01:10:23.860Z,97.8
2022-09-05T01:11:17.327Z,97.7
2022-09-05T01:12:16.864Z,95.4
2022-09-05T01:13:17.357Z,97.7
2022-09-05T01:14:16.824Z,97.7
2022-09-05T01:15:17.293Z,97.6
2022-09-05T01:16:17.023Z,97.5
2022-09-05T01:17:16.536Z,97.5
2022-09-05T01:18:16.967Z,97.5
2022-09-05T01:19:17.384Z,97.6
2022-09-05T01:20:20.478Z,97.5
2022-09-05T01:21:17.038Z,97.5
2022-09-05T01:22:16.942Z,97.5
2022-09-05T01:23:17.406Z,97.6
2022-09-05T01:24:28.257Z,97.5
2022-09-05T01:25:16.730Z,97.5
2022-09-05T01:26:17.179Z,97.6
2022-09-05T01:27:16.669Z,97.7
2022-09-05T01:29:14.911Z,97.7
2022-09-05T01:29:20.009Z,97.7
2022-09-05T01:30:16.558Z,95.4
2022-09-05T01:31:17.338Z,95.4
2022-09-05T01:32:16.536Z,95.6
2022-09-05T01:33:16.968Z,97.8
2022-09-05T01:34:23.072Z,97.8
2022-09-05T01:35:16.773Z,97.8
2022-09-05T01:36:17.236Z,97.8
2022-09-05T01:37:33.228Z,97.7
2022-09-05T01:38:17.097Z,97.7
2022-09-05T01:40:12.748Z,97.7
2022-09-05T01:40:17.535Z,97.6
2022-09-05T01:41:19.672Z,97.5
2022-09-05T01:42:17.185Z,97.5
2022-09-05T01:43:16.698Z,97.5
2022-09-05T01:44:17.166Z,97.5
2022-09-05T01:45:16.623Z,97.5
2022-09-05T01:46:17.162Z,94.9
2022-09-05T01:47:29.675Z,97.5
2022-09-05T01:48:16.767Z,97.5
2022-09-05T01:49:18.621Z,97.3
2022-09-05T01:50:17.242Z,97.2
2022-09-05T01:51:31.322Z,97.2
2022-09-05T01:52:17.028Z,97.2
2022-09-05T01:53:16.558Z,97.1
2022-09-05T01:54:28.497Z,97.2
2022-09-05T01:55:16.745Z,97.2
2022-09-05T01:56:17.248Z,97.2
2022-09-05T01:57:19.845Z,97.3
2022-09-05T01:58:17.348Z,97.5
2022-09-05T01:59:16.870Z,97.5
2022-09-05T02:00:17.329Z,97.5
2022-09-05T02:01:32.775Z,97.5
2022-09-05T02:02:17.714Z,97.5
2022-09-05T02:03:17.226Z,97.5
2022-09-05T02:04:16.684Z,97.5
2022-09-05T02:05:48.082Z,97.5
2022-09-05T02:06:16.539Z,97.6
2022-09-05T02:07:30.645Z,97.5
2022-09-05T02:08:16.972Z,97.5
2022-09-05T02:09:17.399Z,97.5
2022-09-05T02:10:16.848Z,97.5
2022-09-05T02:11:34.881Z,97.5
2022-09-05T02:12:17.272Z,97.5
2022-09-05T02:13:16.736Z,97.5
2022-09-05T02:14:33.887Z,97.5
2022-09-05T02:15:16.898Z,97.5
2022-09-05T02:16:17.412Z,97.6
2022-09-05T02:17:50.315Z,97.6
2022-09-05T02:18:17.334Z,97.6
2022-09-05T02:19:16.748Z,97.6
2022-09-05T02:20:24.307Z,97.7
2022-09-05T02:21:16.816Z,97.8
2022-09-05T02:22:17.322Z,97.7
2022-09-05T02:23:41.452Z,97.7
2022-09-05T02:24:17.239Z,97.7
2022-09-05T02:26:00.931Z,95.2
2022-09-05T02:26:17.155Z,97.5
2022-09-05T02:27:31.761Z,97.5
2022-09-05T02:28:17.064Z,97.5
2022-09-05T02:29:29.843Z,97.5
2022-09-05T02:30:16.429Z,97.4
2022-09-05T02:31:21.005Z,97.5
2022-09-05T02:32:16.671Z,97.5
2022-09-05T02:33:17.093Z,97.5
2022-09-05T02:34:16.518Z,97.5
2022-09-05T02:35:16.964Z,95.1
2022-09-05T02:36:19.809Z,97.5
2022-09-05T02:38:38.081Z,97.6
2022-09-05T02:38:54.410Z,97.5
2022-09-05T02:42:04.600Z,97.6
2022-09-05T02:45:00.145Z,97.6
2022-09-05T02:45:04.732Z,95.1
2022-09-05T02:45:04.832Z,97.5
2022-09-05T02:45:05.185Z,97.7
2022-09-05T02:45:16.056Z,97.7
2022-09-05T02:45:27.689Z,97.5
2022-09-05T02:46:17.612Z,97.5
2022-09-05T02:47:17.089Z,97.5
2022-09-05T02:48:16.523Z,97.5
2022-09-05T02:49:41.896Z,97.5
2022-09-05T02:50:58.291Z,97.5
2022-09-05T02:56:08.254Z,97.5
2022-09-05T02:56:38.923Z,97.5
2022-09-05T02:57:30.689Z,97.5
2022-09-05T02:57:31.302Z,97.5
2022-09-05T02:57:32.238Z,97.5
2022-09-05T02:57:47.700Z,97.5
2022-09-05T02:57:47.793Z,97.5
2022-09-05T02:58:16.953Z,97.5
2022-09-05T02:59:36.542Z,97.5
2022-09-05T03:00:17.251Z,97.5
2022-09-05T03:01:16.876Z,97.5
2022-09-05T03:02:27.072Z,97.5
2022-09-05T03:03:16.759Z,97.5
2022-09-05T03:04:17.241Z,97.5
2022-09-05T03:05:16.708Z,97.5
2022-09-05T03:06:34.741Z,97.5
2022-09-05T03:07:16.691Z,97.5
2022-09-05T03:08:17.130Z,97.5
2022-09-05T03:09:17.781Z,97.5
2022-09-05T03:10:17.243Z,97.5
2022-09-05T03:11:16.702Z,97.5
2022-09-05T03:12:29.911Z,97.5
2022-09-05T03:13:16.452Z,97.7
2022-09-05T03:14:16.901Z,97.6
2022-09-05T03:15:23.402Z,97.7
2022-09-05T03:16:17.053Z,97.7
2022-09-05T03:17:16.510Z,97.7
2022-09-05T03:18:21.575Z,97.7
2022-09-05T03:19:17.060Z,95.1
2022-09-05T03:20:16.524Z,97.6
2022-09-05T03:21:16.977Z,97.5
2022-09-05T03:22:16.565Z,97.5
2022-09-05T03:23:16.999Z,95.1
2022-09-05T03:24:16.428Z,95.1
2022-09-05T03:25:16.885Z,95.2
2022-09-05T03:26:17.332Z,95.3
2022-09-05T03:27:16.800Z,95.4
2022-09-05T03:28:16.534Z,95.4
2022-09-05T03:29:17.022Z,95.4
2022-09-05T03:30:16.476Z,97.7
2022-09-05T03:31:23.131Z,97.7
2022-09-05T03:32:17.373Z,97.7
2022-09-05T03:33:16.799Z,97.6
2022-09-05T03:34:17.218Z,97.5
2022-09-05T03:35:16.643Z,97.5
2022-09-05T03:36:19.155Z,97.6
2022-09-05T03:37:16.591Z,95.2
2022-09-05T03:38:17.029Z,95.2
2022-09-05T03:39:16.467Z,97.7
2022-09-05T03:40:17.245Z,97.7
2022-09-05T03:41:16.765Z,97.6
2022-09-05T03:42:19.190Z,97.7
2022-09-05T03:43:16.931Z,97.7
2022-09-05T03:44:17.382Z,97.7
2022-09-05T03:45:36.860Z,97.7
2022-09-05T03:46:17.014Z,95.5
2022-09-05T03:47:16.475Z,97.8
2022-09-05T03:48:29.256Z,97.8
2022-09-05T03:50:31.179Z,97.8
2022-09-05T03:51:33.539Z,97.8
2022-09-05T03:53:57.151Z,97.8
2022-09-05T03:55:35.387Z,97.8
2022-09-05T03:57:10.055Z,97.8
2022-09-05T03:57:10.061Z,97.8
2022-09-05T03:57:21.796Z,97.8
2022-09-05T03:57:22.333Z,95.5
2022-09-05T03:57:41.274Z,97.8
2022-09-05T03:58:18.472Z,97.8
2022-09-05T03:59:16.915Z,97.8
2022-09-05T04:00:17.395Z,95.5
2022-09-05T04:02:23.687Z,97.8
2022-09-05T04:04:39.291Z,97.8
2022-09-05T04:05:55.948Z,97.8
2022-09-05T04:08:12.002Z,97.8
2022-09-05T04:08:12.011Z,97.8
2022-09-05T04:08:12.180Z,97.8
2022-09-05T04:08:13.124Z,97.8
2022-09-05T04:08:36.826Z,97.9
2022-09-05T04:09:49.206Z,95.7
2022-09-05T04:10:17.373Z,95.7
2022-09-05T04:11:16.885Z,95.8
2022-09-05T04:12:17.123Z,95.9
2022-09-05T04:13:19.472Z,97.9
2022-09-05T04:14:16.918Z,98.0
2022-09-05T04:15:17.373Z,98.0
2022-09-05T04:16:16.964Z,98.0
2022-09-05T04:17:16.455Z,98.0
2022-09-05T04:18:25.923Z,98.1
2022-09-05T04:19:17.221Z,98.3
2022-09-05T04:20:16.646Z,98.3
2022-09-05T04:21:17.106Z,98.3
2022-09-05T04:22:16.959Z,98.5
2022-09-05T04:23:17.406Z,98.5
2022-09-05T04:24:16.840Z,98.7
2022-09-05T04:25:17.295Z,98.7
2022-09-05T04:26:16.744Z,98.8
2022-09-05T04:27:17.191Z,98.8
2022-09-05T04:28:16.654Z,98.7
2022-09-05T04:29:17.134Z,98.7
2022-09-05T04:30:39.209Z,98.8
2022-09-05T04:31:16.612Z,98.8
2022-09-05T04:32:19.644Z,98.8
2022-09-05T04:33:17.214Z,98.8
2022-09-05T04:34:16.671Z,98.9
2022-09-05T04:35:17.092Z,98.9
2022-09-05T04:36:18.618Z,99.0
2022-09-05T04:37:17.086Z,99.0
2022-09-05T04:38:16.516Z,99.0
2022-09-05T04:39:17.006Z,99.0
2022-09-05T04:40:16.490Z,98.8
2022-09-05T04:41:16.919Z,98.8
2022-09-05T04:42:17.987Z,98.7
2022-09-05T04:43:16.416Z,98.5
2022-09-05T04:44:16.912Z,98.5
2022-09-05T04:45:24.597Z,98.5
2022-09-05T04:46:19.557Z,98.5
2022-09-05T04:47:18.971Z,98.5
2022-09-05T04:48:21.819Z,98.5
2022-09-05T04:49:17.164Z,98.5
2022-09-05T04:50:23.401Z,98.4
2022-09-05T04:51:17.166Z,98.3
2022-09-05T04:52:31.239Z,98.3
2022-09-05T04:53:17.260Z,98.4
2022-09-05T04:54:16.701Z,98.4
2022-09-05T04:55:17.680Z,98.4
2022-09-05T04:56:17.190Z,98.4
2022-09-05T04:57:16.631Z,98.4
2022-09-05T04:58:20.584Z,98.3
2022-09-05T05:00:16.830Z,98.3
2022-09-05T05:03:08.373Z,98.3
2022-09-05T05:03:31.310Z,98.2
2022-09-05T05:06:06.456Z,98.2
2022-09-05T05:06:06.887Z,98.2
2022-09-05T05:06:07.532Z,98.2
2022-09-05T05:06:07.797Z,98.2
2022-09-05T05:06:42.130Z,98.1
2022-09-05T05:07:17.053Z,98.0
2022-09-05T05:08:28.809Z,98.0
2022-09-05T05:09:17.253Z,98.0
2022-09-05T05:10:57.394Z,97.9
2022-09-05T05:14:35.398Z,97.9
2022-09-05T05:15:29.423Z,97.8
2022-09-05T05:17:07.589Z,97.8
2022-09-05T05:18:04.872Z,97.7
2022-09-05T05:18:04.908Z,97.7
2022-09-05T05:18:05.194Z,97.6
2022-09-05T05:18:05.870Z,97.8
2022-09-05T05:18:35.559Z,97.6
2022-09-05T05:19:22.272Z,97.6
2022-09-05T05:20:40.946Z,97.5
2022-09-05T05:21:17.263Z,97.5
2022-09-05T05:22:16.854Z,97.5
2022-09-05T05:23:17.306Z,97.5
2022-09-05T05:24:22.161Z,97.3
2022-09-05T05:25:18.017Z,97.2
2022-09-05T05:26:16.478Z,97.2
2022-09-05T05:27:16.927Z,97.2
2022-09-05T05:28:25.427Z,97.1
2022-09-05T05:29:19.872Z,97.0
2022-09-05T05:30:17.336Z,97.0
2022-09-05T05:31:16.862Z,96.9
2022-09-05T05:32:31.675Z,96.8
2022-09-05T05:33:17.036Z,96.8
2022-09-05T05:34:25.075Z,96.8
2022-09-05T05:35:16.652Z,96.7
2022-09-05T05:36:17.100Z,96.7
2022-09-05T05:37:16.578Z,96.5
2022-09-05T05:38:17.040Z,96.5
2022-09-05T05:39:16.505Z,96.5
2022-09-05T05:40:16.959Z,96.3
2022-09-05T05:41:17.410Z,96.3
2022-09-05T05:42:21.587Z,96.3
2022-09-05T05:43:17.166Z,96.3
2022-09-05T05:44:16.586Z,96.2
2022-09-05T05:45:17.009Z,96.2
2022-09-05T05:46:16.643Z,96.1
2022-09-05T05:47:32.079Z,96.0
2022-09-05T05:48:19.020Z,96.0
2022-09-05T05:49:17.201Z,95.9
2022-09-05T05:50:16.629Z,95.9
2022-09-05T05:51:17.071Z,95.8
2022-09-05T05:52:16.785Z,95.8
2022-09-05T05:53:43.333Z,95.7
2022-09-05T05:54:16.728Z,95.5
2022-09-05T05:55:51.022Z,95.4
2022-09-05T05:56:16.693Z,95.3
2022-09-05T05:57:17.144Z,95.2
2022-09-05T05:58:16.575Z,95.0
2022-09-05T05:59:24.560Z,95.1
2022-09-05T06:00:28.206Z,95.0
2022-09-05T06:01:35.322Z,94.8
2022-09-05T06:02:17.470Z,94.8
2022-09-05T06:03:27.495Z,94.9
2022-09-05T06:04:17.195Z,94.9
2022-09-05T06:05:16.643Z,94.8
2022-09-05T06:06:17.085Z,94.8
2022-09-05T06:07:16.560Z,94.7
2022-09-05T06:09:28.378Z,94.5
2022-09-05T06:11:21.997Z,94.5
2022-09-05T06:12:45.001Z,94.2
2022-09-05T06:14:54.017Z,93.3
2022-09-05T06:14:54.064Z,93.2
2022-09-05T06:14:54.127Z,93.7
2022-09-05T06:14:54.437Z,94.0
2022-09-05T06:15:23.773Z,93.2
2022-09-05T06:16:16.957Z,93.1
2022-09-05T06:17:28.563Z,92.8
2022-09-05T06:18:17.037Z,92.8
2022-09-05T06:19:16.500Z,92.8
2022-09-05T06:21:24.037Z,92.7
2022-09-05T06:22:07.982Z,92.6
2022-09-05T06:22:21.459Z,92.2
2022-09-05T06:23:39.716Z,92.1
2022-09-05T06:24:21.580Z,92.1
2022-09-05T06:25:17.781Z,92.1
2022-09-05T06:26:17.208Z,91.9
2022-09-05T06:27:16.647Z,91.9
2022-09-05T06:28:20.007Z,91.9
2022-09-05T06:29:16.572Z,91.8
2022-09-05T06:30:17.008Z,91.7
2022-09-05T06:31:29.688Z,91.4
2022-09-05T06:32:16.859Z,91.2
2022-09-05T06:33:17.355Z,90.9
2022-09-05T06:34:33.666Z,90.7
2022-09-05T06:35:17.285Z,90.6
2022-09-05T06:36:16.779Z,90.5
2022-09-05T06:37:17.275Z,90.3
2022-09-05T06:38:16.745Z,90.2
2022-09-05T06:39:17.253Z,90.2
2022-09-05T06:40:16.678Z,89.8
2022-09-05T06:41:17.085Z,89.4
2022-09-05T06:42:33.448Z,89.0
2022-09-05T06:43:17.300Z,88.5
2022-09-05T06:44:16.713Z,88.2
2022-09-05T06:45:28.931Z,88.1
2022-09-05T06:46:55.541Z,88.1
2022-09-05T06:47:33.852Z,87.8
2022-09-05T06:48:44.218Z,87.4
2022-09-05T06:49:35.960Z,87.5
2022-09-05T06:50:28.011Z,87.0
2022-09-05T06:51:16.562Z,87.2
2022-09-05T06:52:30.103Z,87.0
2022-09-05T06:53:21.155Z,86.7
2022-09-05T06:54:16.668Z,86.6
2022-09-05T06:55:17.142Z,86.4
2022-09-05T06:56:26.499Z,86.5
2022-09-05T06:57:17.146Z,86.2
2022-09-05T06:58:16.565Z,86.0
2022-09-05T06:59:16.979Z,85.7
2022-09-05T07:00:22.852Z,85.9
2022-09-05T07:01:20.113Z,85.7
2022-09-05T07:02:46.351Z,85.7
2022-09-05T07:03:17.847Z,85.5
2022-09-05T07:04:34.586Z,85.2
2022-09-05T07:05:38.754Z,85.1
2022-09-05T07:06:20.511Z,85.0
2022-09-05T07:07:17.353Z,84.5
2022-09-05T07:08:35.491Z,84.4
2022-09-05T07:09:17.213Z,84.2
2022-09-05T07:10:38.240Z,84.3
2022-09-05T07:11:17.495Z,83.9
2022-09-05T07:12:16.887Z,83.5
2022-09-05T07:13:17.376Z,83.2
2022-09-05T07:14:16.809Z,82.8
2022-09-05T07:15:17.243Z,82.8
2022-09-05T07:16:37.577Z,83.3
2022-09-05T07:17:16.753Z,82.9
2022-09-05T07:18:17.238Z,82.2
2022-09-05T07:19:16.739Z,81.9
2022-09-05T07:20:22.278Z,81.8
2022-09-05T07:21:27.086Z,82.1
2022-09-05T07:22:29.680Z,82.3
2022-09-05T07:23:47.848Z,82.2
2022-09-05T07:24:39.109Z,81.8
2022-09-05T07:25:18.856Z,81.2
2022-09-05T07:26:43.401Z,80.1
2022-09-05T07:27:25.636Z,79.8
2022-09-05T07:28:30.464Z,79.8
2022-09-05T07:29:17.059Z,79.5
2022-09-05T07:30:16.492Z,79.2
2022-09-05T07:31:37.804Z,79.0
2022-09-05T07:32:22.465Z,78.3
2022-09-05T07:33:16.725Z,77.8
2022-09-05T07:34:21.831Z,77.2
2022-09-05T07:35:17.309Z,77.1
2022-09-05T07:36:16.778Z,77.5
2022-09-05T07:37:17.231Z,77.1
2022-09-05T07:38:16.704Z,76.5
2022-09-05T07:39:29.472Z,76.6
2022-09-05T07:40:27.019Z,75.6
2022-09-05T07:41:16.530Z,75.5
2022-09-05T07:42:16.979Z,75.4
2022-09-05T07:43:19.240Z,75.2
2022-09-05T07:44:16.711Z,75.7
2022-09-05T07:45:17.164Z,75.0
2022-09-05T07:46:16.744Z,74.8
2022-09-05T07:47:17.216Z,74.7
2022-09-05T07:48:19.031Z,74.2
2022-09-05T07:49:16.846Z,73.7
2022-09-05T07:51:17.322Z,75.2
2022-09-05T07:54:45.346Z,75.4
2022-09-05T07:55:12.393Z,74.5
2022-09-05T07:56:48.725Z,75.0
2022-09-05T07:56:48.739Z,74.8
2022-09-05T07:56:57.984Z,74.8
2022-09-05T07:56:58.127Z,74.0
2022-09-05T07:57:31.078Z,75.3
2022-09-05T07:58:17.051Z,75.5
2022-09-05T07:59:16.491Z,76.4
2022-09-05T08:00:29.598Z,75.5
2022-09-05T08:01:17.451Z,73.8
2022-09-05T08:02:17.266Z,73.7
2022-09-05T08:03:16.700Z,73.2
2022-09-05T08:04:17.149Z,73.5
2022-09-05T08:05:21.789Z,73.0
2022-09-05T08:06:55.796Z,74.5
2022-09-05T08:07:46.238Z,76.2
2022-09-05T08:08:18.113Z,76.1
2022-09-05T08:10:05.700Z,74.5
2022-09-05T08:10:16.586Z,74.3
2022-09-05T08:11:26.375Z,73.2
2022-09-05T08:12:16.907Z,73.3
2022-09-05T08:13:27.257Z,73.2
2022-09-05T08:14:40.797Z,73.2
2022-09-05T08:15:16.746Z,73.2
2022-09-05T08:16:16.701Z,73.0
2022-09-05T08:17:17.177Z,72.6
2022-09-05T08:18:16.633Z,72.3
2022-09-05T08:19:17.098Z,72.0
2022-09-05T08:20:16.532Z,72.2
2022-09-05T08:21:26.974Z,72.2
2022-09-05T08:22:16.688Z,72.8
2022-09-05T08:23:17.107Z,72.8
2022-09-05T08:24:16.533Z,72.2
2022-09-05T08:25:16.964Z,71.9
2022-09-05T08:26:17.412Z,71.4
2022-09-05T08:27:17.199Z,71.0
2022-09-05T08:28:16.641Z,70.6
2022-09-05T08:29:17.377Z,70.2
2022-09-05T08:30:28.029Z,69.5
2022-09-05T08:31:16.703Z,70.1
2022-09-05T08:32:16.573Z,70.0
2022-09-05T08:33:17.013Z,69.4
2022-09-05T08:34:16.465Z,69.2
2022-09-05T08:35:16.929Z,69.2
2022-09-05T08:36:17.381Z,69.3
2022-09-05T08:37:22.008Z,68.3
2022-09-05T08:38:16.475Z,68.6
2022-09-05T08:39:16.913Z,66.2
2022-09-05T08:40:17.598Z,66.5
2022-09-05T08:41:17.091Z,66.9
2022-09-05T08:42:16.984Z,66.3
2022-09-05T08:44:01.405Z,66.3
2022-09-05T08:46:38.583Z,67.2
2022-09-05T08:46:39.029Z,67.5
2022-09-05T08:46:45.416Z,66.7
2022-09-05T08:47:17.407Z,67.0
2022-09-05T08:48:16.910Z,67.0
2022-09-05T08:49:32.510Z,67.0
2022-09-05T08:50:17.255Z,65.9
2022-09-05T08:51:16.691Z,66.0
2022-09-05T08:52:17.352Z,65.0
2022-09-05T08:53:45.981Z,64.2
2022-09-05T08:54:17.224Z,64.3
2022-09-05T08:55:16.689Z,63.9
2022-09-05T08:56:21.081Z,64.7
2022-09-05T08:57:16.522Z,65.3
2022-09-05T08:58:16.943Z,65.8
2022-09-05T08:59:32.580Z,66.9
2022-09-05T09:00:24.301Z,65.7
2022-09-05T09:01:17.420Z,65.2
2022-09-05T09:02:45.806Z,64.7
2022-09-05T09:03:16.774Z,64.5
2022-09-05T09:04:40.034Z,62.9
2022-09-05T09:05:16.798Z,62.0
2022-09-05T09:06:17.266Z,62.6
2022-09-05T09:07:36.829Z,63.3
2022-09-05T09:08:17.138Z,62.8
2022-09-05T09:09:16.570Z,63.5
2022-09-05T09:10:26.233Z,62.9
2022-09-05T09:11:16.704Z,62.4
2022-09-05T09:12:16.566Z,62.5
2022-09-05T09:13:16.998Z,62.2
2022-09-05T09:14:30.745Z,62.0
2022-09-05T09:15:16.833Z,61.8
2022-09-05T09:16:17.382Z,62.1
2022-09-05T09:17:16.885Z,62.6
2022-09-05T09:18:17.365Z,62.8
2022-09-05T09:19:16.828Z,63.2
2022-09-05T09:20:17.310Z,62.2
2022-09-05T09:21:16.738Z,61.0
2022-09-05T09:22:17.257Z,60.8
2022-09-05T09:23:30.481Z,63.0
2022-09-05T09:24:16.642Z,61.9
2022-09-05T09:25:23.629Z,61.1
2022-09-05T09:26:17.360Z,60.1
2022-09-05T09:27:27.281Z,59.8
2022-09-05T09:28:49.284Z,59.5
2022-09-05T09:29:17.280Z,60.9
2022-09-05T09:30:16.769Z,61.7
2022-09-05T09:31:17.541Z,61.2
2022-09-05T09:32:16.499Z,60.0
2022-09-05T09:33:16.976Z,59.7
2022-09-05T09:34:16.452Z,59.4
2022-09-05T09:35:20.164Z,59.9
2022-09-05T09:36:16.606Z,59.7
2022-09-05T09:37:21.799Z,59.3
2022-09-05T09:38:16.661Z,59.8
2022-09-05T09:39:37.936Z,60.5
2022-09-05T09:40:16.848Z,59.9
2022-09-05T09:41:17.312Z,60.3
2022-09-05T09:42:32.994Z,59.8
2022-09-05T09:43:17.135Z,59.6
2022-09-05T09:44:16.590Z,59.3
2022-09-05T09:45:29.459Z,59.2
2022-09-05T09:46:17.280Z,59.8
2022-09-05T09:47:16.801Z,58.7
2022-09-05T09:48:17.309Z,58.7
2022-09-05T09:49:23.713Z,58.3
2022-09-05T09:50:17.207Z,58.8
2022-09-05T09:51:16.615Z,59.3
2022-09-05T09:52:21.471Z,59.1
2022-09-05T09:53:16.972Z,58.2
2022-09-05T09:54:17.415Z,58.3
2022-09-05T09:55:21.594Z,59.5
2022-09-05T09:56:17.081Z,58.4
2022-09-05T09:57:17.486Z,59.0
2022-09-05T09:58:16.955Z,59.4
2022-09-05T09:59:17.400Z,59.8
2022-09-05T10:00:16.844Z,59.4
2022-09-05T10:01:35.723Z,58.2
2022-09-05T10:02:56.226Z,58.4
2022-09-05T10:06:06.566Z,58.1
2022-09-05T10:06:28.836Z,57.7
2022-09-05T10:10:37.073Z,57.4
2022-09-05T10:10:37.110Z,56.1
2022-09-05T10:10:37.272Z,56.9
2022-09-05T10:10:37.474Z,56.1
2022-09-05T10:10:37.497Z,56.6
2022-09-05T10:11:16.282Z,56.4
2022-09-05T10:12:17.458Z,57.0
2022-09-05T10:13:19.102Z,56.2
2022-09-05T10:14:48.023Z,56.1
2022-09-05T10:15:30.969Z,56.2
2022-09-05T10:16:16.961Z,55.7
2022-09-05T10:17:17.299Z,54.8
2022-09-05T10:18:19.004Z,54.8
2022-09-05T10:19:16.484Z,55.5
2022-09-05T10:20:16.905Z,55.4
2022-09-05T10:21:18.068Z,54.9
2022-09-05T10:22:37.364Z,55.1
2022-09-05T10:23:16.951Z,56.2
2022-09-05T10:24:17.375Z,56.6
2022-09-05T10:25:20.035Z,54.9
2022-09-05T10:26:16.703Z,54.8
2022-09-05T10:27:17.159Z,55.6
2022-09-05T10:28:16.652Z,55.2
2022-09-05T10:29:31.697Z,55.0
2022-09-05T10:30:43.501Z,56.7
2022-09-05T10:32:39.086Z,56.4
2022-09-05T10:34:17.442Z,57.5
2022-09-05T10:35:05.510Z,59.9
2022-09-05T10:35:12.489Z,60.6
2022-09-05T10:35:24.045Z,59.8
2022-09-05T10:36:17.786Z,59.0
2022-09-05T10:37:18.525Z,58.6
2022-09-05T10:38:16.975Z,58.6
2022-09-05T10:39:16.414Z,58.8
2022-09-05T10:40:16.865Z,58.5
2022-09-05T10:41:22.869Z,58.6
2022-09-05T10:42:16.782Z,58.9
2022-09-05T10:43:17.254Z,60.6
2022-09-05T10:44:16.700Z,59.9
2022-09-05T10:45:17.144Z,59.9
2022-09-05T10:46:49.377Z,60.1
2022-09-05T10:47:17.197Z,61.0
2022-09-05T10:48:16.696Z,61.3
2022-09-05T10:49:17.117Z,61.5
2022-09-05T10:50:16.561Z,62.0
2022-09-05T10:51:28.341Z,62.0
2022-09-05T10:52:19.764Z,62.3
2022-09-05T10:53:17.277Z,62.3
2022-09-05T10:54:16.695Z,62.6
2022-09-05T10:55:17.322Z,62.1
2022-09-05T10:56:16.846Z,62.1
2022-09-05T10:57:17.297Z,62.6
2022-09-05T10:58:29.088Z,62.6
2022-09-05T11:00:59.446Z,63.0
2022-09-05T11:01:31.051Z,63.2
2022-09-05T11:02:25.045Z,62.8
2022-09-05T11:02:33.342Z,62.5
2022-09-05T11:03:29.461Z,62.4
2022-09-05T11:04:17.307Z,62.7
2022-09-05T11:05:16.904Z,63.0
2022-09-05T11:06:25.351Z,62.7
2022-09-05T11:07:16.822Z,63.2
2022-09-05T11:08:17.248Z,62.7
2022-09-05T11:09:16.928Z,62.0
2022-09-05T11:10:17.368Z,62.6
2022-09-05T11:11:35.024Z,63.0
2022-09-05T11:12:16.824Z,63.6
2022-09-05T11:13:17.291Z,62.8
2022-09-05T11:14:27.380Z,62.8
2022-09-05T11:15:16.878Z,62.7
2022-09-05T11:16:17.440Z,62.7
2022-09-05T11:17:16.946Z,62.1
2022-09-05T11:18:17.405Z,63.2
2022-09-05T11:19:16.848Z,63.3
2022-09-05T11:20:34.651Z,63.9
2022-09-05T11:21:16.758Z,64.1
2022-09-05T11:22:24.499Z,64.5
2022-09-05T11:23:16.963Z,62.5
2022-09-05T11:24:17.392Z,62.9
2022-09-05T11:25:19.871Z,62.9
2022-09-05T11:26:17.365Z,62.6
2022-09-05T11:27:26.046Z,62.6
2022-09-05T11:28:16.598Z,62.4
2022-09-05T11:29:17.079Z,62.0
2022-09-05T11:30:31.872Z,62.2
2022-09-05T11:31:17.262Z,62.6
2022-09-05T11:33:28.211Z,62.3
2022-09-05T11:37:29.366Z,63.1
2022-09-05T11:37:44.372Z,63.5
2022-09-05T11:39:49.397Z,62.7
2022-09-05T11:39:49.763Z,62.1
2022-09-05T11:39:50.019Z,62.0
2022-09-05T11:40:01.169Z,61.7
2022-09-05T11:40:01.301Z,63.8
2022-09-05T11:40:41.772Z,62.5
2022-09-05T11:41:18.495Z,62.3
2022-09-05T11:42:17.537Z,62.9
2022-09-05T11:43:17.021Z,63.2
2022-09-05T11:44:27.349Z,62.6
2022-09-05T11:45:16.948Z,63.4
2022-09-05T11:46:17.539Z,63.0
2022-09-05T11:47:33.314Z,62.9
2022-09-05T11:48:16.711Z,63.0
2022-09-05T11:49:17.125Z,63.4
2022-09-05T11:50:16.573Z,62.3
2022-09-05T11:51:16.984Z,62.6
2022-09-05T11:52:16.502Z,62.2
2022-09-05T11:53:16.940Z,62.8
2022-09-05T11:54:17.432Z,62.0
2022-09-05T11:55:21.810Z,62.2
2022-09-05T11:56:17.276Z,61.4
2022-09-05T11:57:32.947Z,60.5
2022-09-05T11:58:44.431Z,61.0
2022-09-05T11:59:32.740Z,62.0
2022-09-05T12:00:31.003Z,61.8
2022-09-05T12:01:38.426Z,62.3
2022-09-05T12:02:24.367Z,62.6
2022-09-05T12:03:57.941Z,62.6
2022-09-05T12:04:17.455Z,62.8
2022-09-05T12:05:47.889Z,63.4
2022-09-05T12:06:17.504Z,62.5
2022-09-05T12:07:30.826Z,62.8
2022-09-05T12:08:17.125Z,62.9
2022-09-05T12:09:23.869Z,62.5
2022-09-05T12:10:43.771Z,62.6
2022-09-05T12:11:16.627Z,62.7
2022-09-05T12:12:39.739Z,62.6
2022-09-05T12:13:17.197Z,62.0
2022-09-05T12:14:26.032Z,62.0
2022-09-05T12:15:16.495Z,62.1
2022-09-05T12:16:19.419Z,62.0
2022-09-05T12:17:34.783Z,61.1
2022-09-05T12:18:21.543Z,61.1
2022-09-05T12:19:20.207Z,61.4
2022-09-05T12:20:29.353Z,61.2
2022-09-05T12:21:20.113Z,61.4
2022-09-05T12:22:24.191Z,61.0
2022-09-05T12:23:49.433Z,60.5
2022-09-05T12:25:14.960Z,59.6
2022-09-05T12:27:37.189Z,60.8
2022-09-05T12:27:37.557Z,59.6
2022-09-05T12:27:37.566Z,60.6
2022-09-05T12:29:09.762Z,60.5
2022-09-05T12:29:35.180Z,59.9
2022-09-05T12:30:16.827Z,59.6
2022-09-05T12:32:30.490Z,60.5
2022-09-05T12:32:50.683Z,59.5
2022-09-05T12:35:30.330Z,60.0
2022-09-05T12:35:44.080Z,59.4
2022-09-05T12:36:09.002Z,59.3
2022-09-05T12:39:29.048Z,59.3
2022-09-05T12:40:04.913Z,58.6
2022-09-05T12:40:27.688Z,59.0
2022-09-05T12:40:57.254Z,58.6
2022-09-05T12:40:57.282Z,58.0
2022-09-05T12:41:40.186Z,58.5
2022-09-05T12:42:30.749Z,58.2
2022-09-05T12:43:57.419Z,58.9
2022-09-05T12:44:40.593Z,58.5
2022-09-05T12:45:20.242Z,58.3
2022-09-05T12:46:24.818Z,57.8
2022-09-05T12:47:21.309Z,57.5
2022-09-05T12:48:19.546Z,57.2
2022-09-05T12:49:17.258Z,58.0
2022-09-05T12:50:16.822Z,58.2
2022-09-05T12:51:45.602Z,58.4
2022-09-05T12:52:16.735Z,57.3
2022-09-05T12:53:17.207Z,58.5
2022-09-05T12:54:33.002Z,57.7
2022-09-05T12:55:16.572Z,56.9
2022-09-05T12:57:28.927Z,57.1
2022-09-05T12:59:17.566Z,56.2
2022-09-05T13:00:58.547Z,56.4
2022-09-05T13:02:53.404Z,56.8
2022-09-05T13:02:59.567Z,56.7
2022-09-05T13:03:00.298Z,56.6
2022-09-05T13:03:10.288Z,56.3
2022-09-05T13:03:29.631Z,56.0
2022-09-05T13:04:21.685Z,56.1
2022-09-05T13:05:17.447Z,54.8
2022-09-05T13:06:25.978Z,54.6
2022-09-05T13:07:16.495Z,54.8
2022-09-05T13:08:16.954Z,55.3
2022-09-05T13:09:17.681Z,53.2
2022-09-05T13:11:32.243Z,52.4
2022-09-05T13:14:46.410Z,52.4
2022-09-05T13:14:51.844Z,52.0
2022-09-05T13:14:52.032Z,53.1
2022-09-05T13:14:52.279Z,53.1
2022-09-05T13:15:24.218Z,52.1
2022-09-05T13:16:23.691Z,52.0
2022-09-05T13:17:17.236Z,51.9
2022-09-05T13:18:16.659Z,52.3
2022-09-05T13:19:17.083Z,51.8